sensor_id;sensor_type;location;lat;lon;timestamp;P1;durP1;ratioP1;P2;durP2;ratioP2
24873;SDS011;12945;42.648;23.370;2023-04-25T00:01:58;7.25;;;5.32;;
24873;SDS011;12945;42.648;23.370;2023-04-25T00:04:24;9.02;;;5.78;;
24873;SDS011;12945;42.648;23.370;2023-04-25T00:06:52;6.32;;;5.38;;
24873;SDS011;12945;42.648;23.370;2023-04-25T00:09:17;7.78;;;6.07;;
24873;SDS011;12945;42.648;23.370;2023-04-25T00:11:43;7.30;;;5.70;;
24873;SDS011;12945;42.648;23.370;2023-04-25T00:14:08;6.07;;;5.35;;
24873;SDS011;12945;42.648;23.370;2023-04-25T00:16:35;8.65;;;6.53;;
24873;SDS011;12945;42.648;23.370;2023-04-25T00:19:01;9.77;;;6.25;;
24873;SDS011;12945;42.648;23.370;2023-04-25T00:21:27;8.32;;;6.13;;
24873;SDS011;12945;42.648;23.370;2023-04-25T00:23:53;8.88;;;6.50;;
24873;SDS011;12945;42.648;23.370;2023-04-25T00:26:18;9.48;;;6.47;;
24873;SDS011;12945;42.648;23.370;2023-04-25T00:28:44;8.95;;;6.18;;
24873;SDS011;12945;42.648;23.370;2023-04-25T00:31:10;7.53;;;6.15;;
24873;SDS011;12945;42.648;23.370;2023-04-25T00:33:35;8.50;;;6.20;;
24873;SDS011;12945;42.648;23.370;2023-04-25T00:36:01;7.88;;;6.30;;
24873;SDS011;12945;42.648;23.370;2023-04-25T00:38:26;10.10;;;6.82;;
24873;SDS011;12945;42.648;23.370;2023-04-25T00:40:51;8.95;;;6.60;;
24873;SDS011;12945;42.648;23.370;2023-04-25T00:43:18;11.02;;;7.63;;
24873;SDS011;12945;42.648;23.370;2023-04-25T00:45:43;9.93;;;7.57;;
24873;SDS011;12945;42.648;23.370;2023-04-25T00:48:08;11.27;;;8.35;;
24873;SDS011;12945;42.648;23.370;2023-04-25T00:50:34;10.63;;;8.23;;
24873;SDS011;12945;42.648;23.370;2023-04-25T00:52:59;12.95;;;8.95;;
24873;SDS011;12945;42.648;23.370;2023-04-25T00:55:25;11.05;;;8.10;;
24873;SDS011;12945;42.648;23.370;2023-04-25T00:57:50;13.95;;;8.38;;
24873;SDS011;12945;42.648;23.370;2023-04-25T01:00:16;11.40;;;8.23;;
24873;SDS011;12945;42.648;23.370;2023-04-25T01:02:42;14.60;;;8.10;;
24873;SDS011;12945;42.648;23.370;2023-04-25T01:05:08;9.73;;;6.82;;
24873;SDS011;12945;42.648;23.370;2023-04-25T01:07:33;11.18;;;6.80;;
24873;SDS011;12945;42.648;23.370;2023-04-25T01:09:59;9.70;;;6.70;;
24873;SDS011;12945;42.648;23.370;2023-04-25T01:12:24;10.38;;;6.88;;
24873;SDS011;12945;42.648;23.370;2023-04-25T01:14:49;9.85;;;6.88;;
24873;SDS011;12945;42.648;23.370;2023-04-25T01:17:15;11.90;;;7.40;;
24873;SDS011;12945;42.648;23.370;2023-04-25T01:19:41;11.07;;;7.40;;
24873;SDS011;12945;42.648;23.370;2023-04-25T01:22:06;10.93;;;8.20;;
24873;SDS011;12945;42.648;23.370;2023-04-25T01:24:32;12.65;;;7.75;;
24873;SDS011;12945;42.648;23.370;2023-04-25T01:26:57;11.00;;;7.18;;
24873;SDS011;12945;42.648;23.370;2023-04-25T01:29:23;12.40;;;6.80;;
24873;SDS011;12945;42.648;23.370;2023-04-25T01:31:49;6.88;;;5.53;;
24873;SDS011;12945;42.648;23.370;2023-04-25T01:34:15;8.43;;;5.93;;
24873;SDS011;12945;42.648;23.370;2023-04-25T01:36:40;9.23;;;6.00;;
24873;SDS011;12945;42.648;23.370;2023-04-25T01:39:05;7.93;;;5.95;;
24873;SDS011;12945;42.648;23.370;2023-04-25T01:41:31;7.00;;;5.93;;
24873;SDS011;12945;42.648;23.370;2023-04-25T01:43:56;9.18;;;5.35;;
24873;SDS011;12945;42.648;23.370;2023-04-25T01:46:22;8.70;;;5.63;;
24873;SDS011;12945;42.648;23.370;2023-04-25T01:48:47;8.32;;;5.65;;
24873;SDS011;12945;42.648;23.370;2023-04-25T01:51:12;10.05;;;5.88;;
24873;SDS011;12945;42.648;23.370;2023-04-25T01:53:38;9.45;;;6.00;;
24873;SDS011;12945;42.648;23.370;2023-04-25T01:56:04;7.72;;;6.53;;
24873;SDS011;12945;42.648;23.370;2023-04-25T01:58:29;8.13;;;6.50;;
24873;SDS011;12945;42.648;23.370;2023-04-25T02:00:55;9.23;;;7.13;;
24873;SDS011;12945;42.648;23.370;2023-04-25T02:03:20;7.68;;;6.40;;
24873;SDS011;12945;42.648;23.370;2023-04-25T02:05:45;8.20;;;6.63;;
24873;SDS011;12945;42.648;23.370;2023-04-25T02:08:11;10.05;;;7.32;;
24873;SDS011;12945;42.648;23.370;2023-04-25T02:10:37;10.68;;;7.97;;
24873;SDS011;12945;42.648;23.370;2023-04-25T02:13:02;10.32;;;8.10;;
24873;SDS011;12945;42.648;23.370;2023-04-25T02:15:27;9.35;;;7.78;;
24873;SDS011;12945;42.648;23.370;2023-04-25T02:17:53;10.27;;;8.57;;
24873;SDS011;12945;42.648;23.370;2023-04-25T02:20:22;10.60;;;8.55;;
24873;SDS011;12945;42.648;23.370;2023-04-25T02:22:48;12.20;;;8.43;;
24873;SDS011;12945;42.648;23.370;2023-04-25T02:25:13;12.55;;;8.32;;
24873;SDS011;12945;42.648;23.370;2023-04-25T02:27:39;9.82;;;8.18;;
24873;SDS011;12945;42.648;23.370;2023-04-25T02:30:05;10.70;;;8.15;;
24873;SDS011;12945;42.648;23.370;2023-04-25T02:32:31;13.10;;;8.93;;
24873;SDS011;12945;42.648;23.370;2023-04-25T02:34:57;14.25;;;8.60;;
24873;SDS011;12945;42.648;23.370;2023-04-25T02:39:52;10.95;;;8.52;;
24873;SDS011;12945;42.648;23.370;2023-04-25T02:42:18;12.32;;;9.60;;
24873;SDS011;12945;42.648;23.370;2023-04-25T02:44:43;14.68;;;8.80;;
24873;SDS011;12945;42.648;23.370;2023-04-25T02:47:08;12.35;;;9.07;;
24873;SDS011;12945;42.648;23.370;2023-04-25T02:49:34;11.57;;;8.50;;
24873;SDS011;12945;42.648;23.370;2023-04-25T02:51:59;14.05;;;8.27;;
24873;SDS011;12945;42.648;23.370;2023-04-25T02:54:24;13.88;;;9.27;;
24873;SDS011;12945;42.648;23.370;2023-04-25T02:56:50;13.10;;;9.27;;
24873;SDS011;12945;42.648;23.370;2023-04-25T02:59:15;11.20;;;9.05;;
24873;SDS011;12945;42.648;23.370;2023-04-25T03:01:40;15.05;;;9.45;;
24873;SDS011;12945;42.648;23.370;2023-04-25T03:04:06;13.80;;;9.35;;
24873;SDS011;12945;42.648;23.370;2023-04-25T03:06:31;11.68;;;9.02;;
24873;SDS011;12945;42.648;23.370;2023-04-25T03:08:56;13.90;;;9.20;;
24873;SDS011;12945;42.648;23.370;2023-04-25T03:11:21;13.27;;;8.93;;
24873;SDS011;12945;42.648;23.370;2023-04-25T03:13:47;16.02;;;9.40;;
24873;SDS011;12945;42.648;23.370;2023-04-25T03:16:12;12.38;;;9.70;;
24873;SDS011;12945;42.648;23.370;2023-04-25T03:18:37;12.48;;;9.05;;
24873;SDS011;12945;42.648;23.370;2023-04-25T03:21:03;11.82;;;9.30;;
24873;SDS011;12945;42.648;23.370;2023-04-25T03:23:28;11.65;;;9.68;;
24873;SDS011;12945;42.648;23.370;2023-04-25T03:25:53;12.82;;;9.32;;
24873;SDS011;12945;42.648;23.370;2023-04-25T03:28:18;12.23;;;9.45;;
24873;SDS011;12945;42.648;23.370;2023-04-25T03:30:44;12.90;;;9.43;;
24873;SDS011;12945;42.648;23.370;2023-04-25T03:33:09;12.45;;;10.10;;
24873;SDS011;12945;42.648;23.370;2023-04-25T03:35:34;13.65;;;9.68;;
24873;SDS011;12945;42.648;23.370;2023-04-25T03:38:00;14.80;;;9.57;;
24873;SDS011;12945;42.648;23.370;2023-04-25T03:40:25;12.55;;;10.05;;
24873;SDS011;12945;42.648;23.370;2023-04-25T03:42:50;13.23;;;9.95;;
24873;SDS011;12945;42.648;23.370;2023-04-25T03:45:15;14.02;;;10.05;;
24873;SDS011;12945;42.648;23.370;2023-04-25T03:47:41;12.75;;;9.80;;
24873;SDS011;12945;42.648;23.370;2023-04-25T03:50:06;13.38;;;10.10;;
24873;SDS011;12945;42.648;23.370;2023-04-25T03:52:32;14.10;;;10.60;;
24873;SDS011;12945;42.648;23.370;2023-04-25T03:54:57;15.07;;;11.30;;
24873;SDS011;12945;42.648;23.370;2023-04-25T03:57:22;14.35;;;11.20;;
24873;SDS011;12945;42.648;23.370;2023-04-25T03:59:47;16.88;;;11.32;;
24873;SDS011;12945;42.648;23.370;2023-04-25T04:02:13;17.42;;;13.25;;
24873;SDS011;12945;42.648;23.370;2023-04-25T04:04:38;17.65;;;12.10;;
24873;SDS011;12945;42.648;23.370;2023-04-25T04:07:03;17.40;;;12.32;;
24873;SDS011;12945;42.648;23.370;2023-04-25T04:09:29;14.20;;;10.40;;
24873;SDS011;12945;42.648;23.370;2023-04-25T04:11:54;12.55;;;10.25;;
24873;SDS011;12945;42.648;23.370;2023-04-25T04:14:19;14.00;;;11.63;;
24873;SDS011;12945;42.648;23.370;2023-04-25T04:16:45;14.70;;;11.73;;
24873;SDS011;12945;42.648;23.370;2023-04-25T04:19:10;16.30;;;11.40;;
24873;SDS011;12945;42.648;23.370;2023-04-25T04:21:36;15.38;;;11.27;;
24873;SDS011;12945;42.648;23.370;2023-04-25T04:24:01;15.18;;;11.07;;
24873;SDS011;12945;42.648;23.370;2023-04-25T04:26:26;18.75;;;11.35;;
24873;SDS011;12945;42.648;23.370;2023-04-25T04:28:52;14.05;;;9.73;;
24873;SDS011;12945;42.648;23.370;2023-04-25T04:31:19;13.13;;;9.70;;
24873;SDS011;12945;42.648;23.370;2023-04-25T04:33:45;12.00;;;9.55;;
24873;SDS011;12945;42.648;23.370;2023-04-25T04:36:10;14.77;;;10.43;;
24873;SDS011;12945;42.648;23.370;2023-04-25T04:38:36;13.23;;;10.32;;
24873;SDS011;12945;42.648;23.370;2023-04-25T04:41:01;12.63;;;9.63;;
24873;SDS011;12945;42.648;23.370;2023-04-25T04:43:27;15.02;;;9.27;;
24873;SDS011;12945;42.648;23.370;2023-04-25T04:45:53;12.70;;;10.27;;
24873;SDS011;12945;42.648;23.370;2023-04-25T04:48:21;17.15;;;11.02;;
24873;SDS011;12945;42.648;23.370;2023-04-25T04:50:46;17.08;;;11.30;;
24873;SDS011;12945;42.648;23.370;2023-04-25T04:53:12;15.25;;;11.10;;
24873;SDS011;12945;42.648;23.370;2023-04-25T04:55:38;14.48;;;10.52;;
24873;SDS011;12945;42.648;23.370;2023-04-25T04:58:03;13.63;;;11.18;;
24873;SDS011;12945;42.648;23.370;2023-04-25T05:00:28;14.90;;;11.02;;
24873;SDS011;12945;42.648;23.370;2023-04-25T05:02:54;16.13;;;11.35;;
24873;SDS011;12945;42.648;23.370;2023-04-25T05:05:20;14.57;;;9.45;;
24873;SDS011;12945;42.648;23.370;2023-04-25T05:07:45;11.90;;;10.10;;
24873;SDS011;12945;42.648;23.370;2023-04-25T05:10:10;11.35;;;8.98;;
24873;SDS011;12945;42.648;23.370;2023-04-25T05:12:36;10.52;;;8.60;;
24873;SDS011;12945;42.648;23.370;2023-04-25T05:15:01;11.45;;;8.40;;
24873;SDS011;12945;42.648;23.370;2023-04-25T05:17:26;12.10;;;8.40;;
24873;SDS011;12945;42.648;23.370;2023-04-25T05:19:52;13.88;;;9.55;;
24873;SDS011;12945;42.648;23.370;2023-04-25T05:22:17;11.48;;;9.32;;
24873;SDS011;12945;42.648;23.370;2023-04-25T05:24:43;14.50;;;10.10;;
24873;SDS011;12945;42.648;23.370;2023-04-25T05:27:08;11.75;;;10.23;;
24873;SDS011;12945;42.648;23.370;2023-04-25T05:29:34;12.95;;;9.88;;
24873;SDS011;12945;42.648;23.370;2023-04-25T05:32:00;14.48;;;10.07;;
24873;SDS011;12945;42.648;23.370;2023-04-25T05:34:25;14.93;;;10.27;;
24873;SDS011;12945;42.648;23.370;2023-04-25T05:36:50;12.50;;;10.38;;
24873;SDS011;12945;42.648;23.370;2023-04-25T05:39:16;10.27;;;9.13;;
24873;SDS011;12945;42.648;23.370;2023-04-25T05:41:42;11.75;;;9.82;;
24873;SDS011;12945;42.648;23.370;2023-04-25T05:44:07;13.52;;;9.63;;
24873;SDS011;12945;42.648;23.370;2023-04-25T05:46:33;13.80;;;10.40;;
24873;SDS011;12945;42.648;23.370;2023-04-25T05:48:58;13.27;;;10.27;;
24873;SDS011;12945;42.648;23.370;2023-04-25T05:51:23;11.32;;;9.18;;
24873;SDS011;12945;42.648;23.370;2023-04-25T05:53:49;15.52;;;11.15;;
24873;SDS011;12945;42.648;23.370;2023-04-25T05:56:14;12.35;;;9.32;;
24873;SDS011;12945;42.648;23.370;2023-04-25T05:58:40;11.90;;;9.40;;
24873;SDS011;12945;42.648;23.370;2023-04-25T06:01:05;10.68;;;9.13;;
24873;SDS011;12945;42.648;23.370;2023-04-25T06:03:30;13.10;;;8.75;;
24873;SDS011;12945;42.648;23.370;2023-04-25T06:05:55;10.70;;;8.35;;
24873;SDS011;12945;42.648;23.370;2023-04-25T06:08:21;10.80;;;8.25;;
24873;SDS011;12945;42.648;23.370;2023-04-25T06:10:47;11.80;;;8.45;;
24873;SDS011;12945;42.648;23.370;2023-04-25T06:13:12;13.02;;;9.02;;
24873;SDS011;12945;42.648;23.370;2023-04-25T06:15:37;14.98;;;9.00;;
24873;SDS011;12945;42.648;23.370;2023-04-25T06:18:02;12.60;;;8.43;;
24873;SDS011;12945;42.648;23.370;2023-04-25T06:20:28;11.98;;;8.23;;
24873;SDS011;12945;42.648;23.370;2023-04-25T06:22:53;10.25;;;8.52;;
24873;SDS011;12945;42.648;23.370;2023-04-25T06:25:18;12.13;;;8.02;;
24873;SDS011;12945;42.648;23.370;2023-04-25T06:27:44;9.07;;;7.32;;
24873;SDS011;12945;42.648;23.370;2023-04-25T06:30:09;10.65;;;8.07;;
24873;SDS011;12945;42.648;23.370;2023-04-25T06:32:36;10.45;;;8.23;;
24873;SDS011;12945;42.648;23.370;2023-04-25T06:35:02;12.23;;;8.65;;
24873;SDS011;12945;42.648;23.370;2023-04-25T06:37:28;12.55;;;8.70;;
24873;SDS011;12945;42.648;23.370;2023-04-25T06:39:53;9.77;;;7.85;;
24873;SDS011;12945;42.648;23.370;2023-04-25T06:42:18;12.20;;;8.23;;
24873;SDS011;12945;42.648;23.370;2023-04-25T06:44:44;9.98;;;7.88;;
24873;SDS011;12945;42.648;23.370;2023-04-25T06:47:09;11.80;;;7.20;;
24873;SDS011;12945;42.648;23.370;2023-04-25T06:49:34;10.07;;;7.07;;
24873;SDS011;12945;42.648;23.370;2023-04-25T06:52:00;8.98;;;6.50;;
24873;SDS011;12945;42.648;23.370;2023-04-25T06:54:25;9.77;;;6.90;;
24873;SDS011;12945;42.648;23.370;2023-04-25T06:56:52;9.45;;;7.00;;
24873;SDS011;12945;42.648;23.370;2023-04-25T06:59:18;10.30;;;6.97;;
24873;SDS011;12945;42.648;23.370;2023-04-25T07:01:43;14.48;;;7.40;;
24873;SDS011;12945;42.648;23.370;2023-04-25T07:04:08;9.93;;;6.35;;
24873;SDS011;12945;42.648;23.370;2023-04-25T07:06:34;10.80;;;5.80;;
24873;SDS011;12945;42.648;23.370;2023-04-25T07:09:03;6.63;;;5.40;;
24873;SDS011;12945;42.648;23.370;2023-04-25T07:11:28;8.90;;;5.82;;
24873;SDS011;12945;42.648;23.370;2023-04-25T07:13:53;9.75;;;5.95;;
24873;SDS011;12945;42.648;23.370;2023-04-25T07:16:18;12.48;;;5.95;;
24873;SDS011;12945;42.648;23.370;2023-04-25T07:18:44;11.02;;;6.72;;
24873;SDS011;12945;42.648;23.370;2023-04-25T07:21:09;7.57;;;5.50;;
24873;SDS011;12945;42.648;23.370;2023-04-25T07:23:35;7.43;;;5.88;;
24873;SDS011;12945;42.648;23.370;2023-04-25T07:26:00;9.98;;;6.20;;
24873;SDS011;12945;42.648;23.370;2023-04-25T07:28:25;11.65;;;6.43;;
24873;SDS011;12945;42.648;23.370;2023-04-25T07:30:51;12.68;;;7.65;;
24873;SDS011;12945;42.648;23.370;2023-04-25T07:33:16;13.80;;;6.95;;
24873;SDS011;12945;42.648;23.370;2023-04-25T07:35:56;10.27;;;6.72;;
24873;SDS011;12945;42.648;23.370;2023-04-25T07:38:21;10.07;;;6.88;;
24873;SDS011;12945;42.648;23.370;2023-04-25T07:40:49;11.02;;;7.70;;
24873;SDS011;12945;42.648;23.370;2023-04-25T07:43:14;9.20;;;6.80;;
24873;SDS011;12945;42.648;23.370;2023-04-25T07:45:45;14.07;;;7.63;;
24873;SDS011;12945;42.648;23.370;2023-04-25T07:48:10;13.32;;;7.15;;
24873;SDS011;12945;42.648;23.370;2023-04-25T07:50:35;10.57;;;7.03;;
24873;SDS011;12945;42.648;23.370;2023-04-25T07:53:01;17.08;;;7.85;;
24873;SDS011;12945;42.648;23.370;2023-04-25T07:55:26;14.75;;;7.13;;
24873;SDS011;12945;42.648;23.370;2023-04-25T07:57:51;13.32;;;7.40;;
24873;SDS011;12945;42.648;23.370;2023-04-25T08:00:17;14.32;;;7.53;;
24873;SDS011;12945;42.648;23.370;2023-04-25T08:02:42;16.38;;;8.07;;
24873;SDS011;12945;42.648;23.370;2023-04-25T08:05:07;13.00;;;7.00;;
24873;SDS011;12945;42.648;23.370;2023-04-25T08:07:36;11.15;;;7.53;;
24873;SDS011;12945;42.648;23.370;2023-04-25T08:10:02;16.40;;;7.13;;
24873;SDS011;12945;42.648;23.370;2023-04-25T08:12:27;11.07;;;7.32;;
24873;SDS011;12945;42.648;23.370;2023-04-25T08:14:53;9.63;;;6.90;;
24873;SDS011;12945;42.648;23.370;2023-04-25T08:17:18;10.45;;;6.20;;
24873;SDS011;12945;42.648;23.370;2023-04-25T08:19:43;10.75;;;5.72;;
24873;SDS011;12945;42.648;23.370;2023-04-25T08:22:09;9.68;;;5.93;;
24873;SDS011;12945;42.648;23.370;2023-04-25T08:24:34;6.85;;;5.30;;
24873;SDS011;12945;42.648;23.370;2023-04-25T08:27:00;9.27;;;6.13;;
24873;SDS011;12945;42.648;23.370;2023-04-25T08:29:25;9.77;;;5.80;;
24873;SDS011;12945;42.648;23.370;2023-04-25T08:31:51;10.93;;;5.72;;
24873;SDS011;12945;42.648;23.370;2023-04-25T08:34:17;13.07;;;5.15;;
24873;SDS011;12945;42.648;23.370;2023-04-25T08:36:43;6.82;;;4.78;;
24873;SDS011;12945;42.648;23.370;2023-04-25T08:39:08;8.95;;;4.38;;
24873;SDS011;12945;42.648;23.370;2023-04-25T08:41:34;8.38;;;3.15;;
24873;SDS011;12945;42.648;23.370;2023-04-25T08:43:59;9.20;;;3.85;;
24873;SDS011;12945;42.648;23.370;2023-04-25T08:46:25;10.50;;;3.67;;
24873;SDS011;12945;42.648;23.370;2023-04-25T08:48:50;5.57;;;3.85;;
24873;SDS011;12945;42.648;23.370;2023-04-25T08:51:24;7.18;;;3.85;;
24873;SDS011;12945;42.648;23.370;2023-04-25T08:53:51;7.78;;;3.50;;
24873;SDS011;12945;42.648;23.370;2023-04-25T08:56:17;7.07;;;2.90;;
24873;SDS011;12945;42.648;23.370;2023-04-25T08:58:43;3.80;;;2.70;;
24873;SDS011;12945;42.648;23.370;2023-04-25T09:01:09;6.25;;;3.15;;
24873;SDS011;12945;42.648;23.370;2023-04-25T09:03:34;4.22;;;3.15;;
24873;SDS011;12945;42.648;23.370;2023-04-25T09:06:00;8.75;;;4.97;;
24873;SDS011;12945;42.648;23.370;2023-04-25T09:08:26;9.88;;;6.85;;
24873;SDS011;12945;42.648;23.370;2023-04-25T09:10:51;9.98;;;5.80;;
24873;SDS011;12945;42.648;23.370;2023-04-25T09:13:24;8.00;;;6.05;;
24873;SDS011;12945;42.648;23.370;2023-04-25T09:18:21;13.27;;;6.70;;
24873;SDS011;12945;42.648;23.370;2023-04-25T09:20:47;9.75;;;7.28;;
24873;SDS011;12945;42.648;23.370;2023-04-25T09:23:12;15.75;;;8.43;;
24873;SDS011;12945;42.648;23.370;2023-04-25T09:25:37;15.88;;;7.90;;
24873;SDS011;12945;42.648;23.370;2023-04-25T09:28:04;10.85;;;7.25;;
24873;SDS011;12945;42.648;23.370;2023-04-25T09:30:30;13.27;;;6.43;;
24873;SDS011;12945;42.648;23.370;2023-04-25T09:32:57;8.55;;;5.00;;
24873;SDS011;12945;42.648;23.370;2023-04-25T09:35:23;10.63;;;5.85;;
24873;SDS011;12945;42.648;23.370;2023-04-25T09:37:49;10.10;;;6.43;;
24873;SDS011;12945;42.648;23.370;2023-04-25T09:40:15;9.57;;;5.60;;
24873;SDS011;12945;42.648;23.370;2023-04-25T09:42:42;9.32;;;5.78;;
24873;SDS011;12945;42.648;23.370;2023-04-25T09:45:08;9.40;;;5.53;;
24873;SDS011;12945;42.648;23.370;2023-04-25T09:47:37;8.98;;;6.07;;
24873;SDS011;12945;42.648;23.370;2023-04-25T09:50:03;9.02;;;5.68;;
24873;SDS011;12945;42.648;23.370;2023-04-25T09:52:38;8.50;;;6.03;;
24873;SDS011;12945;42.648;23.370;2023-04-25T09:55:03;11.02;;;6.13;;
24873;SDS011;12945;42.648;23.370;2023-04-25T09:57:28;11.52;;;6.15;;
24873;SDS011;12945;42.648;23.370;2023-04-25T09:59:54;16.23;;;5.60;;
24873;SDS011;12945;42.648;23.370;2023-04-25T10:02:26;14.68;;;5.63;;
24873;SDS011;12945;42.648;23.370;2023-04-25T10:04:52;9.48;;;5.00;;
24873;SDS011;12945;42.648;23.370;2023-04-25T10:07:19;11.55;;;6.32;;
24873;SDS011;12945;42.648;23.370;2023-04-25T10:09:49;9.85;;;5.47;;
24873;SDS011;12945;42.648;23.370;2023-04-25T10:12:17;8.02;;;5.75;;
24873;SDS011;12945;42.648;23.370;2023-04-25T10:14:43;9.85;;;5.47;;
24873;SDS011;12945;42.648;23.370;2023-04-25T10:17:09;7.15;;;5.55;;
24873;SDS011;12945;42.648;23.370;2023-04-25T10:19:35;12.95;;;5.85;;
24873;SDS011;12945;42.648;23.370;2023-04-25T10:22:14;15.68;;;5.20;;
24873;SDS011;12945;42.648;23.370;2023-04-25T10:24:42;14.23;;;4.70;;
24873;SDS011;12945;42.648;23.370;2023-04-25T10:27:07;5.97;;;2.42;;
24873;SDS011;12945;42.648;23.370;2023-04-25T10:29:33;4.65;;;1.50;;
24873;SDS011;12945;42.648;23.370;2023-04-25T10:31:58;1.88;;;1.50;;
24873;SDS011;12945;42.648;23.370;2023-04-25T10:34:24;3.60;;;1.58;;
24873;SDS011;12945;42.648;23.370;2023-04-25T10:36:51;4.63;;;1.70;;
24873;SDS011;12945;42.648;23.370;2023-04-25T10:39:23;1.90;;;1.30;;
24873;SDS011;12945;42.648;23.370;2023-04-25T10:41:53;3.15;;;1.23;;
24873;SDS011;12945;42.648;23.370;2023-04-25T10:44:18;1.67;;;1.00;;
24873;SDS011;12945;42.648;23.370;2023-04-25T10:46:44;2.65;;;1.20;;
24873;SDS011;12945;42.648;23.370;2023-04-25T10:49:09;5.72;;;1.15;;
24873;SDS011;12945;42.648;23.370;2023-04-25T10:51:36;6.40;;;2.05;;
24873;SDS011;12945;42.648;23.370;2023-04-25T10:57:00;7.45;;;3.20;;
24873;SDS011;12945;42.648;23.370;2023-04-25T10:59:18;6.38;;;2.97;;
24873;SDS011;12945;42.648;23.370;2023-04-25T11:01:45;7.10;;;2.83;;
24873;SDS011;12945;42.648;23.370;2023-04-25T11:04:23;4.97;;;2.55;;
24873;SDS011;12945;42.648;23.370;2023-04-25T11:09:34;4.88;;;1.90;;
24873;SDS011;12945;42.648;23.370;2023-04-25T11:11:59;5.57;;;2.05;;
24873;SDS011;12945;42.648;23.370;2023-04-25T11:14:25;13.55;;;2.45;;
24873;SDS011;12945;42.648;23.370;2023-04-25T11:16:54;4.45;;;1.80;;
24873;SDS011;12945;42.648;23.370;2023-04-25T11:19:23;4.03;;;2.00;;
24873;SDS011;12945;42.648;23.370;2023-04-25T11:21:49;5.13;;;1.60;;
24873;SDS011;12945;42.648;23.370;2023-04-25T11:24:15;5.13;;;2.38;;
24873;SDS011;12945;42.648;23.370;2023-04-25T11:26:41;6.63;;;2.35;;
24873;SDS011;12945;42.648;23.370;2023-04-25T11:29:06;5.57;;;2.08;;
24873;SDS011;12945;42.648;23.370;2023-04-25T11:31:31;8.40;;;2.35;;
24873;SDS011;12945;42.648;23.370;2023-04-25T11:33:57;7.60;;;1.80;;
24873;SDS011;12945;42.648;23.370;2023-04-25T11:36:26;5.30;;;2.28;;
24873;SDS011;12945;42.648;23.370;2023-04-25T11:38:52;6.90;;;2.30;;
24873;SDS011;12945;42.648;23.370;2023-04-25T11:41:18;13.02;;;2.70;;
24873;SDS011;12945;42.648;23.370;2023-04-25T11:43:43;3.83;;;2.67;;
24873;SDS011;12945;42.648;23.370;2023-04-25T11:46:09;4.00;;;2.65;;
24873;SDS011;12945;42.648;23.370;2023-04-25T11:48:38;4.10;;;2.70;;
24873;SDS011;12945;42.648;23.370;2023-04-25T11:51:04;8.48;;;2.78;;
24873;SDS011;12945;42.648;23.370;2023-04-25T11:53:29;6.45;;;3.40;;
24873;SDS011;12945;42.648;23.370;2023-04-25T11:55:54;4.20;;;2.50;;
24873;SDS011;12945;42.648;23.370;2023-04-25T11:58:21;8.88;;;3.13;;
24873;SDS011;12945;42.648;23.370;2023-04-25T12:00:46;4.30;;;2.03;;
24873;SDS011;12945;42.648;23.370;2023-04-25T12:03:11;2.20;;;1.08;;
24873;SDS011;12945;42.648;23.370;2023-04-25T12:05:37;8.32;;;1.30;;
24873;SDS011;12945;42.648;23.370;2023-04-25T12:08:15;3.47;;;1.27;;
24873;SDS011;12945;42.648;23.370;2023-04-25T12:10:42;2.60;;;1.00;;
24873;SDS011;12945;42.648;23.370;2023-04-25T12:13:23;4.15;;;2.55;;
24873;SDS011;12945;42.648;23.370;2023-04-25T12:15:49;2.15;;;1.17;;
24873;SDS011;12945;42.648;23.370;2023-04-25T12:18:18;3.35;;;1.10;;
24873;SDS011;12945;42.648;23.370;2023-04-25T12:20:43;2.70;;;1.33;;
24873;SDS011;12945;42.648;23.370;2023-04-25T12:23:08;1.40;;;1.20;;
24873;SDS011;12945;42.648;23.370;2023-04-25T12:25:37;3.65;;;1.50;;
24873;SDS011;12945;42.648;23.370;2023-04-25T12:28:19;3.05;;;1.42;;
24873;SDS011;12945;42.648;23.370;2023-04-25T12:33:20;6.20;;;1.73;;
24873;SDS011;12945;42.648;23.370;2023-04-25T12:35:45;2.50;;;1.50;;
24873;SDS011;12945;42.648;23.370;2023-04-25T12:38:10;3.90;;;1.50;;
24873;SDS011;12945;42.648;23.370;2023-04-25T12:40:36;3.63;;;1.13;;
24873;SDS011;12945;42.648;23.370;2023-04-25T12:43:01;2.35;;;1.15;;
24873;SDS011;12945;42.648;23.370;2023-04-25T12:45:27;1.88;;;1.30;;
24873;SDS011;12945;42.648;23.370;2023-04-25T12:47:52;3.58;;;1.48;;
24873;SDS011;12945;42.648;23.370;2023-04-25T12:50:17;5.35;;;1.88;;
24873;SDS011;12945;42.648;23.370;2023-04-25T12:52:42;7.93;;;1.30;;
24873;SDS011;12945;42.648;23.370;2023-04-25T12:55:08;5.90;;;1.50;;
24873;SDS011;12945;42.648;23.370;2023-04-25T12:57:33;3.33;;;1.25;;
24873;SDS011;12945;42.648;23.370;2023-04-25T12:59:58;7.10;;;1.60;;
24873;SDS011;12945;42.648;23.370;2023-04-25T13:02:23;2.92;;;1.50;;
24873;SDS011;12945;42.648;23.370;2023-04-25T13:04:49;6.55;;;1.58;;
24873;SDS011;12945;42.648;23.370;2023-04-25T13:07:14;5.47;;;1.63;;
24873;SDS011;12945;42.648;23.370;2023-04-25T13:09:40;5.68;;;1.55;;
24873;SDS011;12945;42.648;23.370;2023-04-25T13:12:06;6.55;;;1.52;;
24873;SDS011;12945;42.648;23.370;2023-04-25T13:14:31;2.95;;;1.48;;
24873;SDS011;12945;42.648;23.370;2023-04-25T13:16:56;3.63;;;1.50;;
24873;SDS011;12945;42.648;23.370;2023-04-25T13:19:21;2.58;;;1.58;;
24873;SDS011;12945;42.648;23.370;2023-04-25T13:21:47;3.45;;;1.73;;
24873;SDS011;12945;42.648;23.370;2023-04-25T13:24:12;6.80;;;1.70;;
24873;SDS011;12945;42.648;23.370;2023-04-25T13:26:37;3.75;;;1.67;;
24873;SDS011;12945;42.648;23.370;2023-04-25T13:29:02;4.40;;;1.65;;
24873;SDS011;12945;42.648;23.370;2023-04-25T13:31:28;6.15;;;1.90;;
24873;SDS011;12945;42.648;23.370;2023-04-25T13:33:54;5.47;;;2.20;;
24873;SDS011;12945;42.648;23.370;2023-04-25T13:36:19;10.25;;;2.00;;
24873;SDS011;12945;42.648;23.370;2023-04-25T13:38:44;9.63;;;2.30;;
24873;SDS011;12945;42.648;23.370;2023-04-25T13:41:12;5.90;;;2.58;;
24873;SDS011;12945;42.648;23.370;2023-04-25T13:43:42;5.30;;;2.20;;
24873;SDS011;12945;42.648;23.370;2023-04-25T13:46:07;3.08;;;2.10;;
24873;SDS011;12945;42.648;23.370;2023-04-25T13:48:33;6.72;;;2.15;;
24873;SDS011;12945;42.648;23.370;2023-04-25T13:50:58;3.17;;;2.05;;
24873;SDS011;12945;42.648;23.370;2023-04-25T13:53:23;2.65;;;2.00;;
24873;SDS011;12945;42.648;23.370;2023-04-25T13:55:49;2.60;;;1.90;;
24873;SDS011;12945;42.648;23.370;2023-04-25T13:58:15;5.00;;;2.10;;
24873;SDS011;12945;42.648;23.370;2023-04-25T14:00:40;6.63;;;2.15;;
24873;SDS011;12945;42.648;23.370;2023-04-25T14:03:08;4.57;;;2.30;;
24873;SDS011;12945;42.648;23.370;2023-04-25T14:05:33;6.47;;;2.90;;
24873;SDS011;12945;42.648;23.370;2023-04-25T14:08:03;5.95;;;2.50;;
24873;SDS011;12945;42.648;23.370;2023-04-25T14:10:28;3.78;;;1.98;;
24873;SDS011;12945;42.648;23.370;2023-04-25T14:12:53;8.07;;;3.10;;
24873;SDS011;12945;42.648;23.370;2023-04-25T14:15:19;2.60;;;1.58;;
24873;SDS011;12945;42.648;23.370;2023-04-25T14:17:45;7.15;;;1.80;;
24873;SDS011;12945;42.648;23.370;2023-04-25T14:20:10;5.25;;;1.85;;
24873;SDS011;12945;42.648;23.370;2023-04-25T14:22:36;3.95;;;1.45;;
24873;SDS011;12945;42.648;23.370;2023-04-25T14:25:06;4.72;;;1.30;;
24873;SDS011;12945;42.648;23.370;2023-04-25T14:27:31;1.98;;;0.98;;
24873;SDS011;12945;42.648;23.370;2023-04-25T14:29:57;1.30;;;1.05;;
24873;SDS011;12945;42.648;23.370;2023-04-25T14:32:22;2.35;;;1.30;;